createdAt,value
2018-09-25T00:00:45.535Z,8.77
2018-09-25T00:01:45.767Z,8.75
2018-09-25T00:02:46.566Z,8.68
2018-09-25T00:03:47.085Z,8.68
2018-09-25T00:04:47.894Z,8.61
2018-09-25T00:05:48.956Z,8.59
2018-09-25T00:06:50.311Z,8.53
2018-09-25T00:07:51.100Z,8.49
2018-09-25T00:08:52.176Z,8.49
2018-09-25T00:09:52.682Z,8.42
2018-09-25T00:10:54.195Z,8.41
2018-09-25T00:11:55.262Z,8.49
2018-09-25T00:12:56.496Z,8.36
2018-09-25T00:13:57.285Z,8.42
2018-09-25T00:14:58.863Z,8.36
2018-09-25T00:15:59.654Z,8.36
2018-09-25T00:17:00.997Z,8.36
2018-09-25T00:18:01.794Z,8.41
2018-09-25T00:19:02.582Z,8.41
2018-09-25T00:20:03.383Z,8.41
2018-09-25T00:21:04.725Z,8.45
2018-09-25T00:22:05.516Z,8.42
2018-09-25T00:23:06.861Z,8.49
2018-09-25T00:24:07.486Z,8.6
2018-09-25T00:25:08.725Z,8.5
2018-09-25T00:26:09.348Z,8.54
2018-09-25T00:27:09.687Z,8.5
2018-09-25T00:28:10.197Z,8.59
2018-09-25T00:29:11.266Z,8.54
2018-09-25T00:30:12.332Z,8.53
2018-09-25T00:31:13.397Z,8.52
2018-09-25T00:32:15.017Z,8.41
2018-09-25T00:33:15.359Z,8.44
2018-09-25T00:34:16.159Z,8.42
2018-09-25T00:35:17.677Z,8.42
2018-09-25T00:36:19.018Z,8.41
2018-09-25T00:37:20.358Z,8.44
2018-09-25T00:38:20.587Z,8.45
2018-09-25T00:39:21.371Z,8.36
2018-09-25T00:40:22.880Z,8.36
2018-09-25T00:41:23.667Z,8.36
2018-09-25T00:42:25.019Z,8.39
2018-09-25T00:43:25.361Z,8.44
2018-09-25T00:44:25.869Z,8.39
2018-09-25T00:45:26.273Z,8.39
2018-09-25T00:46:27.333Z,8.49
2018-09-25T00:47:27.399Z,8.42
2018-09-25T00:48:28.462Z,8.42
2018-09-25T00:49:29.524Z,8.38
2018-09-25T00:50:30.424Z,8.42
2018-09-25T00:51:30.805Z,8.34
2018-09-25T00:52:31.588Z,8.34
2018-09-25T00:53:32.651Z,8.35
2018-09-25T00:54:32.885Z,8.32
2018-09-25T00:55:33.841Z,8.28
2018-09-25T00:56:34.906Z,8.31
2018-09-25T00:57:35.695Z,8.35
2018-09-25T00:58:36.763Z,8.35
2018-09-25T00:59:37.883Z,8.35
2018-09-25T01:00:38.503Z,8.34
2018-09-25T01:01:39.461Z,8.41
2018-09-25T01:02:40.527Z,8.39
2018-09-25T01:03:40.318Z,8.36
2018-09-25T01:04:41.100Z,8.36
2018-09-25T01:05:42.059Z,8.26
2018-09-25T01:06:43.408Z,8.28
2018-09-25T01:07:43.765Z,8.31
2018-09-25T01:08:43.990Z,8.34
2018-09-25T01:09:45.327Z,8.27
2018-09-25T01:10:45.838Z,8.34
2018-09-25T01:11:46.903Z,8.41
2018-09-25T01:12:47.698Z,8.36
2018-09-25T01:13:49.037Z,8.38
2018-09-25T01:14:49.381Z,8.27
2018-09-25T01:15:49.901Z,8.35
2018-09-25T01:16:50.410Z,8.27
2018-09-25T01:17:51.196Z,8.39
2018-09-25T01:18:51.426Z,8.45
2018-09-25T01:19:52.936Z,8.41
2018-09-25T01:20:53.723Z,8.42
2018-09-25T01:21:55.524Z,8.36
2018-09-25T01:22:55.757Z,8.38
2018-09-25T01:23:56.822Z,8.56
2018-09-25T01:24:57.330Z,8.46
2018-09-25T01:25:57.593Z,8.57
2018-09-25T01:26:58.658Z,8.46
2018-09-25T01:27:59.562Z,8.53
2018-09-25T01:28:59.902Z,8.53
2018-09-25T01:30:00.968Z,8.56
2018-09-25T01:31:02.202Z,8.53
2018-09-25T01:32:03.266Z,8.41
2018-09-25T01:33:03.610Z,8.49
2018-09-25T01:34:04.398Z,8.5
2018-09-25T01:35:05.460Z,8.38
2018-09-25T01:36:06.977Z,8.44
2018-09-25T01:37:07.216Z,8.49
2018-09-25T01:38:08.556Z,8.52
2018-09-25T01:39:08.624Z,8.59
2018-09-25T01:40:09.687Z,8.52
2018-09-25T01:41:11.336Z,8.53
2018-09-25T01:42:11.849Z,8.6
2018-09-25T01:43:13.358Z,8.59
2018-09-25T01:44:13.866Z,8.49
2018-09-25T01:45:14.096Z,8.46
2018-09-25T01:46:15.614Z,8.5
2018-09-25T01:47:16.122Z,8.36
2018-09-25T01:48:17.186Z,8.42
2018-09-25T01:49:18.251Z,8.45
2018-09-25T01:50:18.763Z,8.36
2018-09-25T01:51:19.558Z,8.42
2018-09-25T01:52:20.338Z,8.54
2018-09-25T01:53:21.124Z,8.41
2018-09-25T01:54:21.908Z,8.49
2018-09-25T01:55:22.414Z,8.38
2018-09-25T01:56:23.489Z,8.39
2018-09-25T01:57:24.270Z,8.35
2018-09-25T01:58:25.333Z,8.32
2018-09-25T01:59:25.674Z,8.36
2018-09-25T02:00:26.181Z,8.35
2018-09-25T02:01:27.253Z,8.35
2018-09-25T02:02:27.761Z,8.36
2018-09-25T02:03:28.825Z,8.31
2018-09-25T02:04:28.893Z,8.27
2018-09-25T02:05:29.955Z,8.27
2018-09-25T02:06:31.476Z,8.18
2018-09-25T02:07:31.982Z,8.09
2018-09-25T02:08:32.494Z,8.14
2018-09-25T02:09:33.562Z,8.05
2018-09-25T02:10:34.351Z,8.14
2018-09-25T02:11:34.412Z,8.08
2018-09-25T02:12:35.034Z,8.14
2018-09-25T02:13:36.100Z,8.03
2018-09-25T02:14:37.164Z,8.08
2018-09-25T02:15:38.229Z,8.03
2018-09-25T02:16:38.742Z,8.08
2018-09-25T02:17:39.537Z,8.02
2018-09-25T02:18:40.324Z,8.05
2018-09-25T02:19:41.029Z,8.05
2018-09-25T02:20:42.114Z,8.09
2018-09-25T02:21:42.539Z,8.09
2018-09-25T02:22:42.893Z,8.06
2018-09-25T02:23:43.678Z,8.08
2018-09-25T02:24:44.482Z,8.14
2018-09-25T02:25:44.994Z,8.05
2018-09-25T02:26:46.508Z,8.09
2018-09-25T02:27:47.292Z,7.93
2018-09-25T02:28:47.358Z,7.93
2018-09-25T02:29:47.866Z,8.06
2018-09-25T02:30:49.218Z,8.06
2018-09-25T02:31:50.118Z,8.09
2018-09-25T02:32:50.178Z,8.06
2018-09-25T02:33:52.079Z,8.09
2018-09-25T02:34:51.860Z,8.06
2018-09-25T02:35:52.676Z,8.11
2018-09-25T02:36:54.467Z,8.14
2018-09-25T02:37:54.808Z,8.05
2018-09-25T02:38:55.874Z,8.2
2018-09-25T02:39:57.215Z,8.08
2018-09-25T02:40:57.006Z,8.09
2018-09-25T02:41:59.182Z,8.08
2018-09-25T02:42:59.525Z,8.11
2018-09-25T02:44:00.153Z,8.14
2018-09-25T02:45:01.222Z,8.14
2018-09-25T02:46:02.013Z,8.16
2018-09-25T02:47:03.938Z,8.18
2018-09-25T02:48:04.280Z,8.17
2018-09-25T02:49:04.902Z,8.21
2018-09-25T02:50:06.524Z,8.17
2018-09-25T02:51:06.867Z,8.31
2018-09-25T02:52:07.218Z,8.26
2018-09-25T02:53:07.286Z,8.31
2018-09-25T02:54:07.796Z,8.24
2018-09-25T02:55:08.854Z,8.26
2018-09-25T02:56:10.195Z,8.35
2018-09-25T02:57:11.021Z,8.2
2018-09-25T02:58:12.088Z,8.28
2018-09-25T02:59:12.603Z,8.28
2018-09-25T03:00:13.950Z,8.31
2018-09-25T03:01:15.015Z,8.32
2018-09-25T03:02:16.367Z,8.34
2018-09-25T03:03:17.272Z,8.23
2018-09-25T03:04:17.897Z,8.28
2018-09-25T03:05:18.960Z,8.27
2018-09-25T03:06:20.026Z,8.28
2018-09-25T03:07:21.243Z,8.26
2018-09-25T03:08:22.042Z,8.28
2018-09-25T03:09:23.663Z,8.27
2018-09-25T03:10:24.289Z,8.27
2018-09-25T03:11:25.351Z,8.31
2018-09-25T03:12:26.143Z,8.34
2018-09-25T03:13:26.497Z,8.32
2018-09-25T03:14:27.288Z,8.26
2018-09-25T03:15:28.077Z,8.24
2018-09-25T03:16:29.977Z,8.32
2018-09-25T03:17:30.369Z,8.26
2018-09-25T03:18:31.149Z,8.28
2018-09-25T03:19:31.378Z,8.26
2018-09-25T03:20:32.294Z,8.28
2018-09-25T03:21:33.212Z,8.28
2018-09-25T03:22:34.340Z,8.26
2018-09-25T03:23:34.993Z,8.23
2018-09-25T03:24:36.341Z,8.14
2018-09-25T03:25:36.443Z,8.23
2018-09-25T03:26:37.511Z,8.23
2018-09-25T03:27:38.593Z,8.21
2018-09-25T03:28:39.943Z,8.2
2018-09-25T03:29:40.729Z,8.18
2018-09-25T03:30:42.351Z,8.14
2018-09-25T03:31:43.537Z,8.2
2018-09-25T03:32:43.610Z,8.21
2018-09-25T03:33:45.511Z,8.21
2018-09-25T03:34:46.421Z,8.23
2018-09-25T03:35:47.595Z,8.18
2018-09-25T03:36:48.389Z,8.16
2018-09-25T03:37:49.636Z,8.14
2018-09-25T03:38:50.442Z,8.14
2018-09-25T03:39:51.784Z,8.18
2018-09-25T03:40:52.678Z,8.17
2018-09-25T03:41:54.032Z,8.17
2018-09-25T03:42:54.371Z,8.17
2018-09-25T03:43:55.266Z,8.14
2018-09-25T03:44:55.332Z,8.16
2018-09-25T03:45:56.119Z,8.17
2018-09-25T03:46:56.456Z,8.18
2018-09-25T03:47:57.247Z,8.14
2018-09-25T03:48:58.141Z,8.16
2018-09-25T03:49:58.764Z,8.06
2018-09-25T03:50:59.550Z,8.06
2018-09-25T03:52:00.888Z,8.11
2018-09-25T03:53:01.675Z,8.11
2018-09-25T03:54:02.298Z,8.08
2018-09-25T03:55:02.806Z,8.03
2018-09-25T03:56:03.320Z,8.08
2018-09-25T03:57:04.107Z,8.18
2018-09-25T03:58:05.194Z,8.16
2018-09-25T03:59:05.702Z,8.06
2018-09-25T04:00:06.761Z,8.08
2018-09-25T04:01:07.823Z,8.17
2018-09-25T04:02:08.890Z,8.17
2018-09-25T04:03:09.678Z,8.2
2018-09-25T04:04:10.745Z,8.16
2018-09-25T04:05:11.850Z,8.11
2018-09-25T04:06:13.139Z,8.02
2018-09-25T04:07:13.614Z,8.17
2018-09-25T04:08:14.430Z,8.05
2018-09-25T04:09:14.500Z,8.06
2018-09-25T04:10:15.283Z,8.03
2018-09-25T04:11:16.193Z,8.02
2018-09-25T04:12:16.818Z,8.06
2018-09-25T04:13:17.882Z,8.06
2018-09-25T04:14:18.230Z,8.05
2018-09-25T04:15:18.569Z,7.88
2018-09-25T04:16:19.642Z,7.84
2018-09-25T04:17:20.982Z,7.96
2018-09-25T04:18:34.461Z,7.87
2018-09-25T04:19:35.529Z,7.87
2018-09-25T04:20:36.871Z,7.96
2018-09-25T04:21:37.214Z,7.91
2018-09-25T04:22:38.849Z,8.03
2018-09-25T04:23:39.471Z,8.05
2018-09-25T04:24:40.258Z,8.02
2018-09-25T04:25:41.043Z,7.98
2018-09-25T04:26:42.112Z,8.06
2018-09-25T04:27:41.894Z,7.91
2018-09-25T04:28:42.963Z,7.91
2018-09-25T04:29:44.078Z,7.91
2018-09-25T04:30:44.975Z,7.88
2018-09-25T04:31:45.606Z,7.91
2018-09-25T04:32:45.670Z,7.88
2018-09-25T04:33:46.739Z,7.84
2018-09-25T04:34:46.800Z,7.88
2018-09-25T04:35:48.141Z,7.87
2018-09-25T04:36:49.213Z,7.85
2018-09-25T04:37:49.001Z,7.83
2018-09-25T04:38:49.342Z,7.88
2018-09-25T04:39:50.606Z,7.83
2018-09-25T04:40:51.953Z,7.81
2018-09-25T04:41:52.294Z,7.85
2018-09-25T04:42:53.378Z,7.85
2018-09-25T04:43:53.896Z,7.87
2018-09-25T04:44:55.234Z,7.8
2018-09-25T04:45:56.024Z,7.85
2018-09-25T04:46:56.254Z,7.88
2018-09-25T04:47:57.791Z,7.9
2018-09-25T04:48:58.652Z,7.8
2018-09-25T04:49:58.873Z,7.78
2018-09-25T04:50:59.934Z,7.78
2018-09-25T04:52:00.721Z,7.81
2018-09-25T04:53:02.063Z,7.77
2018-09-25T04:54:02.687Z,7.84
2018-09-25T04:55:03.750Z,7.83
2018-09-25T04:56:04.540Z,7.81
2018-09-25T04:57:05.863Z,7.81
2018-09-25T04:58:07.053Z,7.87
2018-09-25T04:59:07.119Z,7.85
2018-09-25T05:00:08.354Z,7.83
2018-09-25T05:01:09.142Z,7.8
2018-09-25T05:02:10.213Z,7.78
2018-09-25T05:03:10.993Z,7.69
2018-09-25T05:04:12.056Z,7.64
2018-09-25T05:05:13.289Z,7.77
2018-09-25T05:06:15.185Z,7.67
2018-09-25T05:07:15.251Z,7.67
2018-09-25T05:08:16.315Z,7.62
2018-09-25T05:09:16.376Z,7.67
2018-09-25T05:10:17.893Z,7.7
2018-09-25T05:11:18.716Z,7.69
2018-09-25T05:12:19.790Z,7.53
2018-09-25T05:13:20.303Z,7.55
2018-09-25T05:14:21.365Z,7.47
2018-09-25T05:15:21.708Z,7.47
2018-09-25T05:16:21.775Z,7.37
2018-09-25T05:17:22.578Z,7.37
2018-09-25T05:18:23.920Z,7.43
2018-09-25T05:19:24.986Z,7.43
2018-09-25T05:20:25.228Z,7.28
2018-09-25T05:21:25.735Z,7.19
2018-09-25T05:22:26.521Z,7.28
2018-09-25T05:23:28.991Z,7.19
2018-09-25T05:24:28.255Z,7.22
2018-09-25T05:25:28.771Z,7.25
2018-09-25T05:26:30.118Z,7.26
2018-09-25T05:27:31.230Z,7.23
2018-09-25T05:28:32.026Z,7.15
2018-09-25T05:29:33.090Z,7.19
2018-09-25T05:30:33.604Z,7.21
2018-09-25T05:31:35.229Z,7.26
2018-09-25T05:32:35.576Z,7.21
2018-09-25T05:33:35.923Z,7.29
2018-09-25T05:34:36.710Z,7.23
2018-09-25T05:35:37.782Z,7.29
2018-09-25T05:36:37.850Z,7.22
2018-09-25T05:37:39.475Z,7.28
2018-09-25T05:38:39.828Z,7.26
2018-09-25T05:39:40.731Z,7.23
2018-09-25T05:40:41.825Z,7.21
2018-09-25T05:41:42.337Z,7.25
2018-09-25T05:42:43.684Z,7.28
2018-09-25T05:43:44.198Z,7.37
2018-09-25T05:44:45.541Z,7.39
2018-09-25T05:45:46.328Z,7.5
2018-09-25T05:46:47.839Z,7.43
2018-09-25T05:47:48.358Z,7.48
2018-09-25T05:48:50.668Z,7.47
2018-09-25T05:49:50.843Z,7.5
2018-09-25T05:50:51.669Z,7.55
2018-09-25T05:51:52.185Z,7.75
2018-09-25T05:52:53.263Z,7.95
2018-09-25T05:53:54.647Z,8.24
2018-09-25T05:54:55.160Z,8.64
2018-09-25T05:55:57.071Z,8.9
2018-09-25T05:56:57.188Z,9.21
2018-09-25T05:57:57.539Z,9.31
2018-09-25T05:58:58.335Z,9.49
2018-09-25T06:00:00.725Z,9.7
2018-09-25T06:01:03.026Z,9.9
2018-09-25T06:02:03.393Z,10.18
2018-09-25T06:03:03.598Z,10.39
2018-09-25T06:04:04.906Z,10.57
2018-09-25T06:05:05.778Z,10.62
2018-09-25T06:06:06.645Z,10.58
2018-09-25T06:07:07.019Z,10.61
2018-09-25T06:08:08.649Z,10.58
2018-09-25T06:09:09.691Z,10.41
2018-09-25T06:10:10.264Z,10.3
2018-09-25T06:11:11.460Z,10.02
2018-09-25T06:12:11.637Z,9.82
2018-09-25T06:13:11.992Z,9.91
2018-09-25T06:14:12.510Z,10.07
2018-09-25T06:15:14.730Z,10.13
2018-09-25T06:16:15.023Z,9.99
2018-09-25T06:17:15.542Z,9.81
2018-09-25T06:18:15.616Z,9.64
2018-09-25T06:19:17.439Z,9.49
2018-09-25T06:20:18.515Z,9.36
2018-09-25T06:21:21.098Z,9.11
2018-09-25T06:22:20.625Z,9.02
2018-09-25T06:23:21.417Z,8.86
2018-09-25T06:24:22.211Z,8.74
2018-09-25T06:25:22.859Z,8.77
2018-09-25T06:26:23.845Z,8.74
2018-09-25T06:27:24.916Z,8.64
2018-09-25T06:28:26.017Z,8.59
2018-09-25T06:29:26.636Z,8.61
2018-09-25T06:30:28.171Z,8.63
2018-09-25T06:31:28.808Z,8.57
2018-09-25T06:32:29.630Z,8.52
2018-09-25T06:33:30.426Z,8.6
2018-09-25T06:34:32.305Z,8.68
2018-09-25T06:35:32.671Z,8.74
2018-09-25T06:36:33.465Z,8.79
2018-09-25T06:37:34.543Z,8.97
2018-09-25T06:38:35.898Z,9.05
2018-09-25T06:39:36.971Z,9.31
2018-09-25T06:40:37.493Z,9.67
2018-09-25T06:41:38.458Z,10.03
2018-09-25T06:42:39.275Z,10.45
2018-09-25T06:43:40.052Z,10.59
2018-09-25T06:44:40.846Z,10.94
2018-09-25T06:45:42.376Z,11.05
2018-09-25T06:46:43.520Z,11.18
2018-09-25T06:47:45.220Z,11.35
2018-09-25T06:48:45.209Z,11.55
2018-09-25T06:49:47.093Z,11.65
2018-09-25T06:50:47.567Z,11.74
2018-09-25T06:51:47.657Z,11.93
2018-09-25T06:52:52.015Z,11.93
2018-09-25T06:53:50.014Z,11.95
2018-09-25T06:54:51.663Z,12.05
2018-09-25T06:55:52.425Z,11.89
2018-09-25T06:56:52.501Z,11.93
2018-09-25T06:57:54.763Z,11.83
2018-09-25T06:58:55.849Z,11.86
2018-09-25T06:59:56.220Z,11.89
2018-09-25T07:00:57.941Z,11.8
2018-09-25T07:01:57.845Z,11.77
2018-09-25T07:02:59.199Z,11.67
2018-09-25T07:03:59.273Z,11.73
2018-09-25T07:04:59.512Z,11.6
2018-09-25T07:06:00.315Z,11.62
2018-09-25T07:07:01.110Z,11.59
2018-09-25T07:08:01.913Z,11.58
2018-09-25T07:09:02.992Z,11.53
2018-09-25T07:10:04.870Z,11.48
2018-09-25T07:11:04.998Z,11.38
2018-09-25T07:12:05.967Z,11.44
2018-09-25T07:13:06.769Z,11.51
2018-09-25T07:14:07.331Z,11.6
2018-09-25T07:15:09.098Z,11.73
2018-09-25T07:16:09.455Z,11.95
2018-09-25T07:17:10.532Z,12.1
2018-09-25T07:18:13.620Z,12.29
2018-09-25T07:19:15.058Z,12.33
2018-09-25T07:20:15.289Z,12.35
2018-09-25T07:21:15.488Z,12.5
2018-09-25T07:22:16.264Z,12.32
2018-09-25T07:23:17.024Z,12.32
2018-09-25T07:24:17.829Z,12.39
2018-09-25T07:25:19.353Z,12.26
2018-09-25T07:26:20.153Z,12.2
2018-09-25T07:27:20.731Z,12.32
2018-09-25T07:28:22.544Z,12.44
2018-09-25T07:29:23.337Z,12.43
2018-09-25T07:30:25.164Z,12.4
2018-09-25T07:31:26.442Z,12.3
2018-09-25T07:32:27.610Z,12.48
2018-09-25T07:33:28.055Z,12.66
2018-09-25T07:34:28.792Z,12.65
2018-09-25T07:35:29.922Z,12.55
2018-09-25T07:36:30.274Z,12.39
2018-09-25T07:37:30.800Z,12.36
2018-09-25T07:38:31.405Z,12.25
2018-09-25T07:39:32.889Z,12.21
2018-09-25T07:40:34.183Z,12.02
2018-09-25T07:41:35.535Z,11.7
2018-09-25T07:42:36.099Z,11.35
2018-09-25T07:43:37.172Z,11.3
2018-09-25T07:44:37.990Z,11.35
2018-09-25T07:45:38.335Z,11.38
2018-09-25T07:46:39.697Z,11.43
2018-09-25T07:47:40.493Z,11.31
2018-09-25T07:48:41.287Z,11.3
2018-09-25T07:49:42.086Z,11.38
2018-09-25T07:50:42.886Z,11.53
2018-09-25T07:51:43.683Z,11.83
2018-09-25T07:52:44.930Z,12.02
2018-09-25T07:53:45.733Z,11.78
2018-09-25T07:54:46.895Z,11.74
2018-09-25T07:55:47.969Z,11.8
2018-09-25T07:56:48.485Z,11.73
2018-09-25T07:57:49.284Z,11.78
2018-09-25T07:58:50.355Z,11.86
2018-09-25T07:59:50.906Z,11.76
2018-09-25T08:00:51.976Z,11.65
2018-09-25T08:01:52.772Z,11.65
2018-09-25T08:02:53.600Z,11.58
2018-09-25T08:03:54.492Z,11.65
2018-09-25T08:04:55.379Z,11.67
2018-09-25T08:05:55.947Z,11.58
2018-09-25T08:06:57.298Z,11.63
2018-09-25T08:07:58.377Z,11.49
2018-09-25T08:08:59.212Z,11.56
2018-09-25T08:10:01.282Z,11.53
2018-09-25T08:11:01.678Z,11.63
2018-09-25T08:12:02.026Z,11.68
2018-09-25T08:13:02.713Z,11.53
2018-09-25T08:14:03.507Z,11.41
2018-09-25T08:15:04.031Z,11.52
2018-09-25T08:16:04.827Z,11.59
2018-09-25T08:17:05.065Z,11.48
2018-09-25T08:18:05.860Z,11.41
2018-09-25T08:19:06.559Z,11.26
2018-09-25T08:20:06.844Z,11.02
2018-09-25T08:21:07.367Z,10.68
2018-09-25T08:22:08.439Z,10.61
2018-09-25T08:23:08.715Z,10.43
2018-09-25T08:24:10.512Z,10.18
2018-09-25T08:25:10.309Z,10.09
2018-09-25T08:26:11.550Z,10.1
2018-09-25T08:27:12.002Z,10.28
2018-09-25T08:28:13.080Z,10.39
2018-09-25T08:29:13.878Z,10.42
2018-09-25T08:30:14.683Z,10.41
2018-09-25T08:31:15.068Z,10.24
2018-09-25T08:32:15.925Z,10.45
2018-09-25T08:33:16.825Z,10.59
2018-09-25T08:34:17.645Z,10.61
2018-09-25T08:35:18.439Z,10.67
2018-09-25T08:36:18.685Z,10.75
2018-09-25T08:37:19.758Z,10.95
2018-09-25T08:38:21.117Z,10.9
2018-09-25T08:39:22.134Z,11.07
2018-09-25T08:40:22.872Z,11.13
2018-09-25T08:41:23.942Z,11.07
2018-09-25T08:42:24.970Z,10.95
2018-09-25T08:43:25.499Z,10.92
2018-09-25T08:44:26.300Z,10.83
2018-09-25T08:45:26.814Z,11.07
2018-09-25T08:46:27.165Z,11.15
2018-09-25T08:47:28.758Z,11.3
2018-09-25T08:48:29.909Z,11.27
2018-09-25T08:49:30.705Z,11.34
2018-09-25T08:50:31.500Z,11.44
2018-09-25T08:51:32.300Z,11.55
2018-09-25T08:52:34.375Z,11.68
2018-09-25T08:53:36.125Z,11.77
2018-09-25T08:54:36.826Z,11.88
2018-09-25T08:55:38.620Z,12.1
2018-09-25T08:56:38.859Z,12.14
2018-09-25T08:57:39.930Z,12.14
2018-09-25T08:58:41.251Z,12.17
2018-09-25T08:59:41.339Z,12.08
2018-09-25T09:00:42.414Z,12.23
2018-09-25T09:01:43.490Z,12.28
2018-09-25T09:02:44.292Z,12.17
2018-09-25T09:03:45.090Z,12.28
2018-09-25T09:04:45.452Z,12.36
2018-09-25T09:05:46.455Z,12.44
2018-09-25T09:06:47.696Z,12.58
2018-09-25T09:07:48.492Z,12.61
2018-09-25T09:08:49.011Z,12.75
2018-09-25T09:09:49.092Z,12.84
2018-09-25T09:10:50.612Z,12.9
2018-09-25T09:11:51.790Z,12.81
2018-09-25T09:12:52.580Z,12.83
2018-09-25T09:13:52.605Z,12.88
2018-09-25T09:14:53.959Z,12.86
2018-09-25T09:15:54.473Z,12.69
2018-09-25T09:16:55.102Z,12.33
2018-09-25T09:17:56.622Z,12.45
2018-09-25T09:18:57.418Z,12.45
2018-09-25T09:19:58.338Z,12.43
2018-09-25T09:20:59.342Z,12.37
2018-09-25T09:21:59.419Z,12.36
2018-09-25T09:23:00.214Z,12.3
2018-09-25T09:24:01.041Z,12.03
2018-09-25T09:25:02.258Z,11.83
2018-09-25T09:26:02.334Z,11.63
2018-09-25T09:27:03.127Z,11.49
2018-09-25T09:28:04.200Z,11.41
2018-09-25T09:29:04.994Z,11.37
2018-09-25T09:30:06.638Z,11.41
2018-09-25T09:32:27.891Z,11.34
2018-09-25T09:33:29.099Z,11.31
2018-09-25T09:34:30.184Z,11.41
2018-09-25T09:35:31.623Z,11.56
2018-09-25T09:36:31.846Z,11.56
2018-09-25T09:37:32.558Z,11.43
2018-09-25T09:38:32.528Z,11.63
2018-09-25T09:39:34.145Z,11.76
2018-09-25T09:40:34.524Z,11.59
2018-09-25T09:41:36.279Z,11.68
2018-09-25T09:42:36.739Z,11.49
2018-09-25T09:43:37.544Z,11.38
2018-09-25T09:44:38.355Z,11.6
2018-09-25T09:45:39.608Z,11.73
2018-09-25T09:46:40.968Z,11.81
2018-09-25T09:47:41.925Z,11.91
2018-09-25T09:48:43.886Z,11.88
2018-09-25T09:49:43.990Z,12.07
2018-09-25T09:50:44.570Z,12.17
2018-09-25T09:51:45.375Z,12.33
2018-09-25T09:52:46.921Z,12.61
2018-09-25T09:53:48.454Z,12.83
2018-09-25T09:54:48.987Z,12.91
2018-09-25T09:55:50.145Z,12.81
2018-09-25T09:56:50.961Z,12.81
2018-09-25T09:57:52.055Z,12.65
2018-09-25T09:58:53.918Z,12.66
2018-09-25T09:59:54.308Z,13.21
2018-09-25T10:00:55.355Z,13.55
2018-09-25T10:01:56.186Z,13.55
2018-09-25T10:02:56.888Z,13.28
2018-09-25T10:03:58.240Z,13.13
2018-09-25T10:04:59.330Z,13.4
2018-09-25T10:06:00.148Z,13.55
2018-09-25T10:07:01.756Z,13.85
2018-09-25T10:08:01.901Z,14.08
2018-09-25T10:09:01.985Z,14.25
2018-09-25T10:10:03.632Z,14.23
2018-09-25T10:11:04.444Z,14.49
2018-09-25T10:12:04.427Z,14.67
2018-09-25T10:13:05.137Z,14.85
2018-09-25T10:14:06.088Z,15
2018-09-25T10:15:07.105Z,15.37
2018-09-25T10:16:08.101Z,15.94
2018-09-25T10:17:09.686Z,15.83
2018-09-25T10:18:10.964Z,15.62
2018-09-25T10:19:11.501Z,15.26
2018-09-25T10:20:12.591Z,15.25
2018-09-25T10:21:13.680Z,15.26
2018-09-25T10:22:14.422Z,15.14
2018-09-25T10:23:14.685Z,14.97
2018-09-25T10:24:15.521Z,14.87
2018-09-25T10:25:16.614Z,14.43
2018-09-25T10:26:17.900Z,14.34
2018-09-25T10:27:19.915Z,14.18
2018-09-25T10:28:19.937Z,14.04
2018-09-25T10:29:21.883Z,14
2018-09-25T10:30:22.139Z,14.01
2018-09-25T10:31:23.443Z,13.68
2018-09-25T10:32:24.462Z,13.21
2018-09-25T10:33:24.403Z,13.08
2018-09-25T10:34:25.554Z,13.02
2018-09-25T10:35:26.686Z,13.58
2018-09-25T10:36:27.449Z,13.98
2018-09-25T10:37:28.055Z,13.75
2018-09-25T10:38:29.358Z,13.6
2018-09-25T10:39:30.896Z,13.3
2018-09-25T10:40:31.734Z,13.87
2018-09-25T10:41:32.102Z,14.31
2018-09-25T10:42:32.914Z,14.78
2018-09-25T10:43:34.292Z,15.07
2018-09-25T10:44:36.032Z,15.3
2018-09-25T10:45:35.121Z,15.57
2018-09-25T10:46:35.208Z,15.51
2018-09-25T10:47:36.014Z,15.14
2018-09-25T10:48:36.820Z,14.78
2018-09-25T10:49:37.968Z,14.99
2018-09-25T10:50:38.785Z,14.77
2018-09-25T10:51:39.622Z,14.53
2018-09-25T10:52:40.707Z,14.51
2018-09-25T10:53:41.693Z,14.45
2018-09-25T10:54:42.224Z,14.3
2018-09-25T10:55:44.151Z,14.33
2018-09-25T10:56:45.337Z,14.19
2018-09-25T10:57:45.590Z,14.26
2018-09-25T10:58:46.674Z,14.18
2018-09-25T10:59:47.775Z,14.45
2018-09-25T11:00:48.958Z,14.53
2018-09-25T11:01:48.795Z,14.99
2018-09-25T11:02:50.133Z,15.07
2018-09-25T11:03:50.046Z,14.77
2018-09-25T11:04:50.135Z,14.66
2018-09-25T11:05:51.385Z,14.45
2018-09-25T11:06:52.639Z,14.36
2018-09-25T11:07:53.174Z,14.22
2018-09-25T11:08:54.433Z,14.31
2018-09-25T11:09:56.639Z,14.59
2018-09-25T11:10:57.205Z,14.9
2018-09-25T11:11:58.669Z,14.97
2018-09-25T11:12:59.757Z,14.79
2018-09-25T11:14:00.547Z,14.61
2018-09-25T11:15:01.077Z,14.51
2018-09-25T11:16:01.611Z,14.56
2018-09-25T11:17:02.692Z,14.45
2018-09-25T11:18:03.501Z,14.34
2018-09-25T11:19:04.032Z,14.34
2018-09-25T11:20:05.018Z,14.2
2018-09-25T11:21:06.244Z,14.03
2018-09-25T11:22:06.262Z,13.94
2018-09-25T11:23:07.572Z,13.91
2018-09-25T11:24:07.602Z,13.85
2018-09-25T11:25:08.548Z,14.07
2018-09-25T11:26:09.476Z,14.33
2018-09-25T11:27:10.299Z,14.48
2018-09-25T11:28:11.012Z,14.55
2018-09-25T11:29:10.900Z,14.79
2018-09-25T11:30:11.995Z,14.74
2018-09-25T11:31:12.801Z,14.85
2018-09-25T11:32:13.605Z,14.62
2018-09-25T11:33:15.135Z,14.56
2018-09-25T11:34:16.154Z,14.58
2018-09-25T11:35:19.071Z,14.56
2018-09-25T11:36:18.783Z,14.63
2018-09-25T11:37:19.955Z,14.67
2018-09-25T11:38:20.476Z,14.26
2018-09-25T11:39:21.004Z,14.16
2018-09-25T11:40:22.089Z,14.05
2018-09-25T11:41:24.615Z,14.07
2018-09-25T11:42:24.581Z,13.97
2018-09-25T11:43:25.694Z,13.86
2018-09-25T11:44:26.371Z,13.95
2018-09-25T11:45:27.182Z,14.08
2018-09-25T11:46:30.416Z,13.94
2018-09-25T11:47:30.223Z,14.16
2018-09-25T11:48:31.028Z,14.2
2018-09-25T11:49:32.442Z,14.15
2018-09-25T11:50:34.830Z,14.33
2018-09-25T11:51:38.700Z,14.19
2018-09-25T11:51:50.814Z,14.25
2018-09-25T11:52:00.452Z,14.34
2018-09-25T11:53:02.407Z,14.52
2018-09-25T11:54:02.500Z,14.74
2018-09-25T11:55:03.304Z,14.92
2018-09-25T11:56:03.671Z,15.14
2018-09-25T11:57:04.484Z,15.19
2018-09-25T11:58:05.128Z,15.15
2018-09-25T11:59:05.661Z,15.05
2018-09-25T12:00:06.202Z,14.78
2018-09-25T12:01:07.285Z,14.71
2018-09-25T12:02:07.874Z,14.89
2018-09-25T12:03:09.607Z,14.79
2018-09-25T12:04:10.198Z,14.77
2018-09-25T12:05:12.020Z,14.66
2018-09-25T12:06:12.549Z,14.56
2018-09-25T12:07:13.351Z,14.52
2018-09-25T12:08:13.435Z,14.13
2018-09-25T12:09:14.685Z,14.28
2018-09-25T12:10:15.770Z,14.11
2018-09-25T12:11:16.298Z,14.2
2018-09-25T12:12:16.658Z,14.31
2018-09-25T12:13:18.198Z,14.59
2018-09-25T12:14:20.057Z,14.97
2018-09-25T12:15:20.596Z,15.14
2018-09-25T12:16:20.951Z,15.3
2018-09-25T12:17:22.099Z,15.59
2018-09-25T12:18:23.473Z,15.81
2018-09-25T12:19:23.555Z,15.94
2018-09-25T12:20:24.647Z,16.1
2018-09-25T12:21:26.013Z,15.99
2018-09-25T12:22:26.103Z,16.02
2018-09-25T12:23:26.980Z,16.17
2018-09-25T12:24:28.753Z,16.28
2018-09-25T12:25:29.238Z,16.29
2018-09-25T12:26:30.117Z,15.99
2018-09-25T12:27:30.740Z,15.66
2018-09-25T12:28:31.991Z,15.6
2018-09-25T12:29:32.843Z,15.51
2018-09-25T12:30:34.096Z,15.57
2018-09-25T12:31:35.181Z,15.59
2018-09-25T12:32:37.136Z,15.41
2018-09-25T12:33:36.859Z,15.5
2018-09-25T12:34:38.292Z,15.7
2018-09-25T12:35:39.441Z,15.76
2018-09-25T12:36:40.252Z,15.72
2018-09-25T12:37:41.641Z,15.72
2018-09-25T12:38:42.680Z,15.99
2018-09-25T12:39:42.781Z,16.36
2018-09-25T12:40:43.309Z,16.36
2018-09-25T12:41:44.537Z,16.34
2018-09-25T12:42:45.351Z,16.09
2018-09-25T12:43:45.943Z,15.69
2018-09-25T12:44:47.523Z,15.39
2018-09-25T12:45:47.631Z,15.41
2018-09-25T12:46:48.715Z,15.3
2018-09-25T12:47:50.582Z,15.41
2018-09-25T12:48:52.665Z,15.52
2018-09-25T12:49:52.576Z,15.7
2018-09-25T12:50:53.620Z,15.5
2018-09-25T12:51:54.224Z,15.65
2018-09-25T12:52:55.350Z,15.62
2018-09-25T12:53:55.619Z,15.78
2018-09-25T12:54:56.737Z,16
2018-09-25T12:55:58.097Z,15.98
2018-09-25T12:56:58.914Z,15.94
2018-09-25T12:57:59.441Z,16.16
2018-09-25T12:59:00.988Z,16.28
2018-09-25T13:00:02.364Z,16.55
2018-09-25T13:01:03.751Z,16.5
2018-09-25T13:02:03.839Z,16.55
2018-09-25T13:03:04.781Z,16.61
2018-09-25T13:04:06.379Z,16.58
2018-09-25T13:05:06.229Z,16.47
2018-09-25T13:06:06.758Z,16.12
2018-09-25T13:07:08.294Z,15.99
2018-09-25T13:08:09.376Z,16
2018-09-25T13:09:10.299Z,16.03
2018-09-25T13:10:10.123Z,16.02
2018-09-25T13:11:11.210Z,15.83
2018-09-25T13:12:12.131Z,15.63
2018-09-25T13:13:12.217Z,15.73
2018-09-25T13:14:12.789Z,15.69
2018-09-25T13:15:14.317Z,15.59
2018-09-25T13:16:15.417Z,15.76
2018-09-25T13:17:15.940Z,16
2018-09-25T13:18:17.024Z,16.21
2018-09-25T13:19:17.941Z,16.4